Hlavní strana
METAR-TAF:

METAR-TAF

Letiště :

Kuvajt, Kuvajt

zeměpisná šířka: 29-13N, zeměpisná délka: 047-59E, výška: 55 m

Aktuální stav počasí

Zpráva byla vytvořena před 22 minutami, v 06:00 UTC
Severozápadní vítr 5 kt
Teplota 11°C
Vlhkost vzduchu 43%
Tlak 1025 hPa
Viditelnost: 7000 m

METAR: OKBK 240600Z 32005KT 7000 NSC 11/M01 Q1025 NOSIG

Čas: 09:22 (06:22 UTC)

Předpověď počasí

Zpráva byla vytvořena před 1 hodinou a 37 minutami, v 04:45 UTC
Předpověď platná od 24 v 06 UTC do 25 v 12 UTC
Severoseverozápadní vítr 12 kt
Viditelnost: 7000 m

TAF: OKBK 240445Z 2406/2512 34012KT 7000 NSC

Stav a předpovědi počasí z více než 4 000 letišť (zprávy METAR a TAF).

Červené a žluté tečky na mapě představují dostupné meteorologické stanice.

Když kurzor umístíte na tečku, zobrazí se název stanice.

Pak kliknutím zobrazíte stav a předpověď počasí.

Chcete-li změnit mapu, kliknutím na zelené tlačítko se znaménkem +mapu přiblížíte, kliknutím na zelené tlačítko se znaménkem – mapu oddálíte a kliknutím na zelené šipky přejdete na sousední mapy.


METAR-TAF: